Time;durP1;ratioP1;P1;durP2;ratioP2;P2;SDS_P1;SDS_P2;PMS_P1;PMS_P2;Temp;Humidity;BMP_temperature;BMP_pressure;BME280_temperature;BME280_humidity;BME280_pressure;Samples;Min_cycle;Max_cycle;Signal;HPM_P1;HPM_P2
2023/04/30 00:07:03;;;;;;;2.95;1.13;;;;;;;;;;20838475;28;20045;-60
2023/04/30 00:17:05;;;;;;;3.10;1.20;;;;;;;;;;20839006;28;20053;-61
2023/04/30 00:27:07;;;;;;;5.88;0.90;;;;;;;;;;20837095;28;20584;-61
2023/04/30 00:37:08;;;;;;;2.05;1.30;;;;;;;;;;20837214;28;20111;-62
2023/04/30 00:47:10;;;;;;;2.17;1.45;;;;;;;;;;20835268;28;20056;-61
2023/04/30 00:57:12;;;;;;;2.17;1.20;;;;;;;;;;20835637;28;20046;-61
2023/04/30 01:07:14;;;;;;;4.53;1.00;;;;;;;;;;20833244;28;20060;-61
2023/04/30 01:17:22;;;;;;;2.90;0.82;;;;;;;;;;20832729;28;20045;-61
2023/04/30 01:27:47;;;;;;;3.17;1.10;;;;;;;;;;20832815;28;20053;-62
2023/04/30 01:38:18;;;;;;;4.03;1.02;;;;;;;;;;20826241;28;20041;-62
2023/04/30 01:48:39;;;;;;;1.40;1.02;;;;;;;;;;20794732;28;20050;-61
2023/04/30 01:58:42;;;;;;;3.15;1.33;;;;;;;;;;20831738;28;20057;-61
2023/04/30 02:08:44;;;;;;;3.10;1.45;;;;;;;;;;20831264;28;20051;-61
2023/04/30 02:18:46;;;;;;;3.40;1.17;;;;;;;;;;20831435;28;20049;-60
2023/04/30 02:28:48;;;;;;;1.83;1.30;;;;;;;;;;20829871;28;20049;-60
2023/04/30 02:38:50;;;;;;;3.45;1.52;;;;;;;;;;20830198;28;20513;-61
2023/04/30 02:48:51;;;;;;;5.07;1.75;;;;;;;;;;20834987;28;20100;-62
2023/04/30 02:58:53;;;;;;;3.42;1.80;;;;;;;;;;20845228;28;20383;-62
2023/04/30 03:08:55;;;;;;;3.42;1.90;;;;;;;;;;20843046;28;20045;-62
2023/04/30 03:18:57;;;;;;;3.65;1.83;;;;;;;;;;20843656;28;20055;-61
2023/04/30 03:29:00;;;;;;;2.40;1.63;;;;;;;;;;20842095;28;20099;-61
2023/04/30 03:39:02;;;;;;;3.90;1.60;;;;;;;;;;20840940;28;20053;-62
2023/04/30 03:49:04;;;;;;;3.88;2.10;;;;;;;;;;20841310;28;20552;-62
2023/04/30 03:59:06;;;;;;;3.53;2.17;;;;;;;;;;20839347;28;20053;-61
2023/04/30 04:09:08;;;;;;;2.20;1.70;;;;;;;;;;20839794;28;20494;-61
2023/04/30 04:19:11;;;;;;;4.43;2.10;;;;;;;;;;20839010;28;20053;-62
2023/04/30 04:29:13;;;;;;;4.00;2.30;;;;;;;;;;20838015;28;20495;-60
2023/04/30 04:39:15;;;;;;;3.38;2.33;;;;;;;;;;20835920;28;20054;-61
2023/04/30 04:49:17;;;;;;;2.72;2.15;;;;;;;;;;20836352;28;20049;-61
2023/04/30 04:59:19;;;;;;;4.40;2.20;;;;;;;;;;20835536;28;20049;-62
2023/04/30 05:09:21;;;;;;;7.75;2.58;;;;;;;;;;20833963;28;20042;-60
2023/04/30 05:19:23;;;;;;;5.65;2.40;;;;;;;;;;20833612;28;20110;-60
2023/04/30 05:29:25;;;;;;;4.45;2.30;;;;;;;;;;20833356;28;20431;-61
2023/04/30 05:39:27;;;;;;;3.08;2.22;;;;;;;;;;20832919;28;20391;-60
2023/04/30 05:49:29;;;;;;;3.38;2.33;;;;;;;;;;20832459;28;20046;-61
2023/04/30 05:59:31;;;;;;;2.97;2.35;;;;;;;;;;20831831;28;20053;-61
2023/04/30 06:09:33;;;;;;;2.90;2.10;;;;;;;;;;20829782;28;20049;-61
2023/04/30 06:19:34;;;;;;;3.53;2.13;;;;;;;;;;20830922;28;20049;-61
2023/04/30 06:29:36;;;;;;;4.13;2.15;;;;;;;;;;20846048;28;20392;-61
2023/04/30 06:39:38;;;;;;;4.43;1.88;;;;;;;;;;20846674;28;20056;-61
2023/04/30 06:49:40;;;;;;;2.50;1.90;;;;;;;;;;20844628;28;20052;-60
2023/04/30 06:59:42;;;;;;;2.40;1.75;;;;;;;;;;20845099;28;20129;-60
2023/04/30 07:09:43;;;;;;;2.63;1.80;;;;;;;;;;20844211;28;20132;-61
2023/04/30 07:19:45;;;;;;;2.72;1.70;;;;;;;;;;20843178;28;20507;-63
2023/04/30 07:29:47;;;;;;;4.28;2.33;;;;;;;;;;20841805;28;20053;-61
2023/04/30 07:39:49;;;;;;;2.53;1.42;;;;;;;;;;20840304;28;20057;-61
2023/04/30 07:49:51;;;;;;;3.30;1.85;;;;;;;;;;20841032;28;20045;-62
2023/04/30 07:59:53;;;;;;;3.20;1.67;;;;;;;;;;20840381;28;20061;-62
2023/04/30 08:09:55;;;;;;;3.00;1.80;;;;;;;;;;20838241;28;20050;-61
2023/04/30 08:19:57;;;;;;;2.45;1.40;;;;;;;;;;20838696;28;20085;-61
2023/04/30 08:29:58;;;;;;;4.40;1.95;;;;;;;;;;20836484;28;20057;-62
2023/04/30 08:40:00;;;;;;;4.60;1.70;;;;;;;;;;20837062;28;20456;-61
2023/04/30 08:50:02;;;;;;;5.28;1.38;;;;;;;;;;20833781;28;20049;-62
2023/04/30 09:00:05;;;;;;;2.67;1.25;;;;;;;;;;20835307;28;20557;-61
2023/04/30 09:10:18;;;;;;;3.35;1.50;;;;;;;;;;20834347;28;20050;-62
2023/04/30 09:20:22;;;;;;;1.77;1.33;;;;;;;;;;20833982;28;20491;-61
2023/04/30 09:30:31;;;;;;;3.63;1.50;;;;;;;;;;20832009;28;20057;-61
2023/04/30 09:40:44;;;;;;;4.78;1.63;;;;;;;;;;20831525;28;20083;-63
2023/04/30 09:50:46;;;;;;;1.67;1.30;;;;;;;;;;20830654;28;20060;-60
2023/04/30 10:00:50;;;;;;;3.58;1.83;;;;;;;;;;20830166;28;20045;-62
2023/04/30 10:10:56;;;;;;;2.00;1.67;;;;;;;;;;20830792;28;20498;-61
2023/04/30 10:20:58;;;;;;;2.47;1.58;;;;;;;;;;20830503;28;20072;-61
2023/04/30 10:31:00;;;;;;;2.13;1.38;;;;;;;;;;20828164;28;20053;-61
2023/04/30 10:41:05;;;;;;;1.77;1.42;;;;;;;;;;20829571;28;20103;-61
2023/04/30 10:51:08;;;;;;;1.92;1.02;;;;;;;;;;20827551;28;20041;-61
2023/04/30 11:01:10;;;;;;;2.28;1.38;;;;;;;;;;20828407;28;20049;-63
2023/04/30 11:11:17;;;;;;;1.83;1.00;;;;;;;;;;20835342;28;20053;-61
2023/04/30 11:21:20;;;;;;;2.20;1.10;;;;;;;;;;20842553;28;20057;-61
2023/04/30 11:31:22;;;;;;;2.15;1.38;;;;;;;;;;20840417;28;20065;-62
2023/04/30 11:41:26;;;;;;;1.90;1.17;;;;;;;;;;20841801;28;20544;-60
2023/04/30 11:51:28;;;;;;;1.98;1.30;;;;;;;;;;20838279;28;20052;-61
2023/04/30 12:01:30;;;;;;;2.15;0.90;;;;;;;;;;20837676;28;20064;-61
2023/04/30 12:11:32;;;;;;;2.90;1.48;;;;;;;;;;20837974;28;20049;-60
2023/04/30 12:21:35;;;;;;;1.67;1.23;;;;;;;;;;20836451;28;20049;-61
2023/04/30 12:31:38;;;;;;;1.73;1.23;;;;;;;;;;20836430;28;20057;-61
2023/04/30 12:41:47;;;;;;;3.08;1.10;;;;;;;;;;20836784;28;20046;-61
2023/04/30 12:51:49;;;;;;;2.08;1.55;;;;;;;;;;20835871;28;20453;-63
2023/04/30 13:01:51;;;;;;;1.70;1.17;;;;;;;;;;20835650;28;20450;-62
2023/04/30 13:11:53;;;;;;;2.63;1.35;;;;;;;;;;20834890;28;20087;-61
2023/04/30 13:21:55;;;;;;;3.55;1.77;;;;;;;;;;20834348;28;20052;-61
2023/04/30 13:31:57;;;;;;;3.47;1.90;;;;;;;;;;20831856;28;20057;-61
2023/04/30 13:41:58;;;;;;;2.45;1.13;;;;;;;;;;20832773;28;20049;-62
2023/04/30 13:52:00;;;;;;;1.65;1.15;;;;;;;;;;20832002;28;20053;-63
2023/04/30 14:02:02;;;;;;;1.40;1.02;;;;;;;;;;20831175;28;20053;-61
2023/04/30 14:12:04;;;;;;;2.00;1.15;;;;;;;;;;20830994;28;20045;-62
2023/04/30 14:22:06;;;;;;;2.10;1.50;;;;;;;;;;20830845;28;20535;-62
2023/04/30 14:32:08;;;;;;;2.55;1.10;;;;;;;;;;20829130;28;20088;-62
2023/04/30 14:42:09;;;;;;;2.00;1.42;;;;;;;;;;20832027;28;20049;-62
2023/04/30 14:52:11;;;;;;;1.55;1.10;;;;;;;;;;20845402;28;20053;-62
2023/04/30 15:02:13;;;;;;;1.95;0.90;;;;;;;;;;20844966;28;20556;-62
2023/04/30 15:12:15;;;;;;;1.20;0.80;;;;;;;;;;20843300;28;20061;-61
2023/04/30 15:22:17;;;;;;;2.45;1.38;;;;;;;;;;20843611;28;20049;-62
2023/04/30 15:32:20;;;;;;;1.33;1.10;;;;;;;;;;20842554;28;20058;-65
2023/04/30 15:42:21;;;;;;;1.98;1.20;;;;;;;;;;20841746;28;20060;-63
2023/04/30 15:52:23;;;;;;;1.55;1.30;;;;;;;;;;20841095;28;20046;-62
2023/04/30 16:02:25;;;;;;;2.28;1.10;;;;;;;;;;20837611;28;20103;-62
2023/04/30 16:12:27;;;;;;;1.92;1.20;;;;;;;;;;20838380;28;20053;-61
2023/04/30 16:22:29;;;;;;;2.42;1.67;;;;;;;;;;20837676;28;20056;-61
2023/04/30 16:32:31;;;;;;;1.42;1.10;;;;;;;;;;20835977;28;20053;-62
2023/04/30 16:42:33;;;;;;;1.50;0.70;;;;;;;;;;20835151;28;20475;-62
2023/04/30 16:52:35;;;;;;;3.45;0.70;;;;;;;;;;20835267;28;20481;-61
2023/04/30 17:02:38;;;;;;;2.58;0.75;;;;;;;;;;20832797;28;20053;-62
2023/04/30 17:12:40;;;;;;;1.70;0.50;;;;;;;;;;20832512;28;20050;-62
2023/04/30 17:22:42;;;;;;;1.10;0.50;;;;;;;;;;20834431;28;20060;-61
2023/04/30 17:32:44;;;;;;;0.43;0.30;;;;;;;;;;20833352;28;20061;-61
2023/04/30 17:42:46;;;;;;;0.75;0.20;;;;;;;;;;20831762;28;20502;-61
2023/04/30 17:52:49;;;;;;;0.30;0.30;;;;;;;;;;20831844;28;20470;-60
2023/04/30 18:02:50;;;;;;;0.35;0.30;;;;;;;;;;20829868;28;20064;-62
2023/04/30 18:12:52;;;;;;;1.80;0.60;;;;;;;;;;20829826;28;20057;-63
2023/04/30 18:22:54;;;;;;;1.48;0.30;;;;;;;;;;20841201;28;20045;-63
2023/04/30 18:32:56;;;;;;;3.72;0.47;;;;;;;;;;20845701;28;20136;-61
2023/04/30 18:42:58;;;;;;;1.02;0.32;;;;;;;;;;20846322;28;20475;-63
2023/04/30 18:53:00;;;;;;;1.10;0.43;;;;;;;;;;20844297;28;20053;-62
2023/04/30 19:03:02;;;;;;;1.77;0.40;;;;;;;;;;20843928;28;20045;-61
2023/04/30 19:13:04;;;;;;;2.15;0.30;;;;;;;;;;20843039;28;20045;-61
2023/04/30 19:23:08;;;;;;;0.82;0.32;;;;;;;;;;20841788;28;20128;-61
2023/04/30 19:33:11;;;;;;;3.13;0.43;;;;;;;;;;20839209;28;20136;-61
2023/04/30 19:43:12;;;;;;;3.53;1.33;;;;;;;;;;20841269;28;20049;-62
2023/04/30 19:53:15;;;;;;;2.63;1.20;;;;;;;;;;20840848;28;20053;-61
2023/04/30 20:03:19;;;;;;;2.30;1.17;;;;;;;;;;20839800;28;20049;-61
2023/04/30 20:13:23;;;;;;;3.03;0.85;;;;;;;;;;20839536;28;20049;-61
2023/04/30 20:23:24;;;;;;;2.97;0.90;;;;;;;;;;20838459;28;20045;-61
2023/04/30 20:33:27;;;;;;;2.67;0.90;;;;;;;;;;20836756;28;20453;-61
2023/04/30 20:43:29;;;;;;;6.35;0.73;;;;;;;;;;20836305;28;20375;-61
2023/04/30 20:53:31;;;;;;;1.17;0.55;;;;;;;;;;20836385;28;20405;-61
2023/04/30 21:03:32;;;;;;;2.65;0.60;;;;;;;;;;20834568;28;20053;-63
2023/04/30 21:13:34;;;;;;;1.23;0.60;;;;;;;;;;20835204;28;20071;-62
2023/04/30 21:23:36;;;;;;;1.90;1.33;;;;;;;;;;20833974;28;20114;-62
2023/04/30 21:33:38;;;;;;;8.40;1.77;;;;;;;;;;20834768;28;20413;-62
2023/04/30 21:43:42;;;;;;;2.70;1.75;;;;;;;;;;20832938;28;20094;-62
2023/04/30 21:53:45;;;;;;;2.63;1.55;;;;;;;;;;20831989;28;20049;-62
2023/04/30 22:03:46;;;;;;;1.65;1.25;;;;;;;;;;20830692;28;20056;-62
2023/04/30 22:13:48;;;;;;;3.47;1.77;;;;;;;;;;20830362;28;20061;-61
2023/04/30 22:23:50;;;;;;;3.92;1.45;;;;;;;;;;20829636;28;20107;-62
2023/04/30 22:33:51;;;;;;;1.50;1.15;;;;;;;;;;20829165;28;20053;-63
2023/04/30 22:43:53;;;;;;;2.40;1.25;;;;;;;;;;20830393;28;20049;-62
2023/04/30 22:53:55;;;;;;;2.65;1.20;;;;;;;;;;20828953;28;20054;-61
2023/04/30 23:03:57;;;;;;;2.67;1.17;;;;;;;;;;20832850;28;20046;-61
2023/04/30 23:13:59;;;;;;;10.45;7.70;;;;;;;;;;20843501;28;20102;-61
2023/04/30 23:24:02;;;;;;;1.92;1.10;;;;;;;;;;20842549;28;20050;-60
2023/04/30 23:34:04;;;;;;;1.50;0.90;;;;;;;;;;20844196;28;20141;-62
2023/04/30 23:44:06;;;;;;;2.42;0.82;;;;;;;;;;20841102;28;20046;-61
2023/04/30 23:54:07;;;;;;;2.05;1.00;;;;;;;;;;20841743;28;20103;-62
